createdAt,value
2019-05-23T00:00:58.645Z,15.07
2019-05-23T00:03:32.897Z,18.03
2019-05-23T00:06:06.839Z,17.53
2019-05-23T00:08:37.400Z,19.80
2019-05-23T00:11:28.027Z,18.50
2019-05-23T00:14:05.493Z,16.10
2019-05-23T00:16:34.528Z,18.63
2019-05-23T00:19:04.476Z,20.90
2019-05-23T00:21:34.612Z,19.87
2019-05-23T00:24:06.684Z,21.03
2019-05-23T00:26:36.156Z,24.03
2019-05-23T00:29:09.860Z,24.23
2019-05-23T00:31:41.980Z,18.90
2019-05-23T00:34:14.472Z,20.43
2019-05-23T00:36:44.827Z,21.37
2019-05-23T00:39:16.032Z,17.10
2019-05-23T00:41:45.964Z,16.60
2019-05-23T00:44:15.901Z,18.00
2019-05-23T00:46:45.532Z,19.00
2019-05-23T00:49:15.949Z,22.17
2019-05-23T00:51:46.471Z,19.03
2019-05-23T00:54:16.132Z,16.73
2019-05-23T00:56:45.707Z,17.97
2019-05-23T00:59:26.601Z,18.20
2019-05-23T01:01:48.300Z,18.10
2019-05-23T01:04:18.317Z,16.00
2019-05-23T01:06:48.394Z,17.03
2019-05-23T01:09:19.497Z,17.40
2019-05-23T01:11:48.920Z,17.73
2019-05-23T01:14:18.327Z,17.17
2019-05-23T01:16:47.976Z,17.67
2019-05-23T01:19:18.108Z,19.47
2019-05-23T01:22:02.711Z,19.50
2019-05-23T01:24:36.199Z,20.13
2019-05-23T01:27:06.096Z,20.80
2019-05-23T01:29:41.968Z,15.33
2019-05-23T01:32:18.094Z,17.90
2019-05-23T01:34:47.810Z,17.30
2019-05-23T01:37:18.266Z,15.50
2019-05-23T01:39:48.053Z,17.60
2019-05-23T01:42:18.329Z,17.53
2019-05-23T01:44:48.340Z,17.03
2019-05-23T01:47:18.205Z,17.73
2019-05-23T01:49:47.810Z,21.30
2019-05-23T01:52:17.709Z,22.80
2019-05-23T01:54:47.948Z,20.90
2019-05-23T01:57:17.873Z,18.10
2019-05-23T01:59:47.398Z,21.53
2019-05-23T02:02:17.844Z,21.37
2019-05-23T02:04:47.468Z,21.53
2019-05-23T02:07:18.635Z,23.37
2019-05-23T02:09:48.191Z,24.60
2019-05-23T02:12:18.070Z,26.53
2019-05-23T02:14:48.472Z,31.87
2019-05-23T02:17:18.521Z,27.00
2019-05-23T02:19:47.979Z,29.90
2019-05-23T02:22:18.443Z,28.07
2019-05-23T02:24:48.081Z,26.57
2019-05-23T02:27:18.165Z,50.57
2019-05-23T02:29:47.768Z,21.07
2019-05-23T02:32:17.565Z,25.07
2019-05-23T02:34:47.363Z,24.63
2019-05-23T02:37:34.629Z,19.23
2019-05-23T02:40:15.488Z,22.17
2019-05-23T02:42:48.052Z,19.57
2019-05-23T02:45:23.670Z,21.60
2019-05-23T02:47:54.865Z,23.33
2019-05-23T02:50:36.914Z,25.40
2019-05-23T02:53:09.488Z,24.53
2019-05-23T02:55:40.887Z,22.03
2019-05-23T02:58:25.741Z,22.37
2019-05-23T03:01:36.138Z,24.77
2019-05-23T03:04:12.796Z,27.57
2019-05-23T03:06:44.173Z,26.47
2019-05-23T03:09:15.784Z,29.37
2019-05-23T03:11:47.030Z,22.60
2019-05-23T03:14:19.199Z,22.30
2019-05-23T03:16:52.309Z,24.80
2019-05-23T03:19:36.844Z,26.40
2019-05-23T03:22:27.624Z,29.20
2019-05-23T03:24:58.900Z,23.63
2019-05-23T03:27:29.152Z,22.30
2019-05-23T03:29:59.239Z,29.20
2019-05-23T03:32:51.433Z,27.00
2019-05-23T03:35:25.455Z,24.30
2019-05-23T03:37:56.252Z,21.90
2019-05-23T03:40:26.147Z,27.73
2019-05-23T03:42:56.007Z,29.67
2019-05-23T03:45:28.429Z,28.20
2019-05-23T03:47:58.502Z,21.60
2019-05-23T03:50:29.391Z,23.57
2019-05-23T03:52:59.557Z,27.20
2019-05-23T03:55:30.908Z,28.60
2019-05-23T03:58:02.633Z,27.10
2019-05-23T04:00:35.219Z,30.73
2019-05-23T04:03:04.881Z,25.73
2019-05-23T04:05:35.507Z,29.70
2019-05-23T04:08:06.231Z,30.27
2019-05-23T04:10:36.376Z,30.07
2019-05-23T04:13:06.063Z,30.00
2019-05-23T04:15:36.387Z,32.67
2019-05-23T04:18:05.803Z,28.37
2019-05-23T04:20:34.829Z,26.83
2019-05-23T04:23:04.041Z,31.43
2019-05-23T04:25:34.080Z,28.13
2019-05-23T04:28:04.388Z,25.60
2019-05-23T04:30:33.907Z,27.47
2019-05-23T04:33:03.519Z,30.30
2019-05-23T04:35:32.833Z,31.40
2019-05-23T04:38:02.376Z,26.87
2019-05-23T04:40:31.796Z,28.80
2019-05-23T04:43:01.036Z,29.07
2019-05-23T04:45:29.931Z,20.50
2019-05-23T04:48:00.300Z,21.60
2019-05-23T04:50:29.615Z,23.13
2019-05-23T04:52:59.909Z,21.70
2019-05-23T04:55:30.645Z,18.50
2019-05-23T04:58:03.992Z,21.53
2019-05-23T05:00:31.051Z,16.53
2019-05-23T05:03:00.717Z,14.67
2019-05-23T05:05:30.312Z,21.00
2019-05-23T05:07:59.805Z,15.37
2019-05-23T05:10:29.014Z,19.83
2019-05-23T05:12:58.511Z,16.80
2019-05-23T05:15:28.212Z,14.30
2019-05-23T05:17:58.449Z,16.00
2019-05-23T05:20:27.885Z,19.37
2019-05-23T05:22:57.315Z,15.23
2019-05-23T05:25:27.160Z,16.53
2019-05-23T05:27:56.765Z,15.87
2019-05-23T05:30:26.712Z,12.60
2019-05-23T05:32:55.808Z,18.50
2019-05-23T05:35:25.768Z,14.50
2019-05-23T05:37:55.328Z,15.47
2019-05-23T05:40:25.217Z,13.80
2019-05-23T05:42:54.618Z,12.83
2019-05-23T05:45:24.292Z,13.70
2019-05-23T05:47:54.118Z,12.10
2019-05-23T05:50:24.428Z,13.80
2019-05-23T05:52:54.798Z,12.43
2019-05-23T05:55:24.304Z,13.07
2019-05-23T05:57:53.389Z,12.60
2019-05-23T06:00:32.920Z,14.57
2019-05-23T06:03:05.529Z,14.10
2019-05-23T06:05:54.157Z,12.37
2019-05-23T06:08:24.115Z,13.80
2019-05-23T06:10:53.380Z,14.10
2019-05-23T06:13:23.002Z,12.37
2019-05-23T06:15:53.020Z,14.00
2019-05-23T06:18:32.815Z,12.97
2019-05-23T06:21:02.756Z,11.60
2019-05-23T06:23:33.320Z,13.27
2019-05-23T06:26:02.693Z,16.50
2019-05-23T06:28:33.199Z,13.37
2019-05-23T06:31:03.050Z,13.33
2019-05-23T06:33:32.499Z,14.50
2019-05-23T06:36:02.435Z,13.57
2019-05-23T06:38:33.284Z,13.97
2019-05-23T06:41:04.061Z,12.70
2019-05-23T06:43:35.340Z,13.00
2019-05-23T06:46:04.772Z,11.70
2019-05-23T06:48:34.246Z,13.53
2019-05-23T06:51:03.549Z,12.20
2019-05-23T06:53:32.874Z,13.27
2019-05-23T06:56:01.641Z,13.10
2019-05-23T06:58:31.703Z,13.80
2019-05-23T07:01:01.957Z,13.83
2019-05-23T07:03:41.795Z,13.50
2019-05-23T07:06:03.170Z,13.27
2019-05-23T07:08:32.863Z,12.73
2019-05-23T07:11:04.775Z,12.40
2019-05-23T07:13:36.572Z,13.10
2019-05-23T07:16:06.048Z,12.87
2019-05-23T07:18:35.380Z,12.90
2019-05-23T07:21:06.292Z,14.90
2019-05-23T07:23:35.300Z,13.40
2019-05-23T07:26:04.941Z,13.57
2019-05-23T07:28:35.370Z,13.40
2019-05-23T07:31:05.384Z,13.37
2019-05-23T07:33:35.051Z,13.60
2019-05-23T07:36:07.245Z,12.47
2019-05-23T07:38:36.057Z,13.63
2019-05-23T07:41:05.357Z,14.00
2019-05-23T07:43:54.302Z,11.47
2019-05-23T07:46:23.295Z,13.23
2019-05-23T07:48:53.978Z,12.53
2019-05-23T07:51:23.664Z,13.50
2019-05-23T07:54:06.477Z,14.13
2019-05-23T07:56:36.639Z,14.90
2019-05-23T07:59:06.331Z,17.73
2019-05-23T08:01:37.716Z,18.00
2019-05-23T10:13:10.131Z,10.33
2019-05-23T10:15:48.970Z,9.97
2019-05-23T10:18:19.880Z,12.13
2019-05-23T10:20:48.841Z,9.40
2019-05-23T10:23:18.436Z,11.60
2019-05-23T10:25:47.755Z,10.47
2019-05-23T10:28:17.380Z,11.20
2019-05-23T10:30:46.358Z,11.93
2019-05-23T10:33:15.720Z,10.87
2019-05-23T10:35:59.058Z,11.10
2019-05-23T10:38:15.693Z,11.10
2019-05-23T10:40:45.701Z,8.30
2019-05-23T10:43:15.749Z,8.93
2019-05-23T10:45:45.402Z,8.60
2019-05-23T10:48:15.416Z,13.30
2019-05-23T10:50:45.561Z,7.97
2019-05-23T10:53:16.627Z,17.73
2019-05-23T10:55:45.938Z,9.07
2019-05-23T10:58:16.021Z,8.97
2019-05-23T11:00:47.300Z,8.53
2019-05-23T11:03:17.264Z,11.37
2019-05-23T11:05:46.887Z,11.10
2019-05-23T11:08:16.907Z,13.03
2019-05-23T11:10:46.503Z,10.70
2019-05-23T11:13:16.080Z,11.20
2019-05-23T11:15:45.371Z,13.33
2019-05-23T11:18:15.490Z,11.53
2019-05-23T11:20:45.658Z,9.60
2019-05-23T11:23:18.901Z,10.30
2019-05-23T11:25:48.192Z,9.17
2019-05-23T11:28:17.172Z,9.80
2019-05-23T11:30:50.217Z,10.13
2019-05-23T11:33:20.476Z,8.57
2019-05-23T11:35:49.821Z,8.90
2019-05-23T11:38:19.787Z,9.33
2019-05-23T11:40:48.881Z,8.50
2019-05-23T11:43:18.853Z,9.77
2019-05-23T11:45:52.034Z,9.87
2019-05-23T11:48:21.826Z,9.90
2019-05-23T11:50:50.752Z,9.77
2019-05-23T11:53:20.680Z,10.27
2019-05-23T11:55:54.050Z,11.60
2019-05-23T11:58:20.538Z,8.63
2019-05-23T12:01:21.341Z,8.83
2019-05-23T12:03:55.423Z,8.93
2019-05-23T12:06:26.835Z,9.27
2019-05-23T12:08:55.865Z,10.83
2019-05-23T12:11:25.156Z,8.60
2019-05-23T12:13:54.694Z,8.77
2019-05-23T12:16:23.711Z,10.80
2019-05-23T12:18:52.682Z,9.30
2019-05-23T12:21:22.671Z,8.47
2019-05-23T12:23:52.269Z,10.43
2019-05-23T12:26:21.880Z,11.47
2019-05-23T12:28:51.210Z,10.87
2019-05-23T12:31:20.995Z,12.10
2019-05-23T12:33:49.966Z,11.17
2019-05-23T12:36:19.837Z,11.33
2019-05-23T12:38:49.544Z,13.17
2019-05-23T12:41:19.122Z,12.17
2019-05-23T12:43:48.099Z,14.07
2019-05-23T12:46:17.321Z,14.10
2019-05-23T12:49:04.041Z,12.60
2019-05-23T12:51:35.058Z,13.73
2019-05-23T12:54:04.296Z,15.13
2019-05-23T12:56:33.832Z,12.03
2019-05-23T12:59:05.653Z,12.90
2019-05-23T13:01:37.656Z,13.37
2019-05-23T13:04:10.378Z,12.73
2019-05-23T13:06:40.204Z,13.30
2019-05-23T13:09:10.884Z,11.80
2019-05-23T13:11:39.961Z,12.90
2019-05-23T13:14:09.791Z,12.10
2019-05-23T13:16:39.009Z,12.33
2019-05-23T13:19:08.966Z,12.47
2019-05-23T13:21:38.189Z,11.17
2019-05-23T13:24:07.228Z,13.20
2019-05-23T13:26:36.773Z,10.00
2019-05-23T13:29:06.342Z,10.93
2019-05-23T13:31:36.045Z,10.90
2019-05-23T13:34:05.820Z,10.90
2019-05-23T13:36:34.977Z,11.13
2019-05-23T13:39:06.028Z,11.80
2019-05-23T13:41:35.296Z,11.50
2019-05-23T13:44:05.562Z,11.40
2019-05-23T13:46:35.532Z,10.67
2019-05-23T13:49:05.241Z,12.27
2019-05-23T13:51:34.549Z,12.10
2019-05-23T13:54:03.730Z,9.90
2019-05-23T13:56:32.961Z,11.43
2019-05-23T13:59:02.243Z,10.37
2019-05-23T14:01:31.556Z,11.30
2019-05-23T14:04:01.001Z,11.80
2019-05-23T14:06:29.822Z,11.60
2019-05-23T14:08:59.541Z,11.03
2019-05-23T14:11:29.049Z,12.67
2019-05-23T14:14:00.215Z,11.23
2019-05-23T14:16:58.068Z,11.13
2019-05-23T14:19:29.529Z,10.70
2019-05-23T14:21:58.296Z,11.00
2019-05-23T14:24:27.501Z,11.10
2019-05-23T14:27:03.554Z,10.87
2019-05-23T14:29:33.056Z,11.90
2019-05-23T14:32:15.262Z,9.83
2019-05-23T14:34:44.778Z,11.13
2019-05-23T14:37:23.112Z,11.03
2019-05-23T14:39:55.593Z,8.77
2019-05-23T14:42:39.335Z,11.23
2019-05-23T14:45:20.732Z,10.10
2019-05-23T14:47:57.754Z,9.47
2019-05-23T14:50:39.068Z,12.33
2019-05-23T14:53:08.795Z,9.53
2019-05-23T14:55:38.133Z,9.40
2019-05-23T14:58:06.904Z,10.37
2019-05-23T15:00:38.330Z,10.80
2019-05-23T15:03:07.803Z,11.03
2019-05-23T15:05:36.710Z,9.80
2019-05-23T15:08:05.669Z,10.33
2019-05-23T15:10:34.916Z,9.00
2019-05-23T15:13:03.817Z,8.87
2019-05-23T15:15:32.693Z,9.10
2019-05-23T15:18:02.674Z,8.37
2019-05-23T15:20:31.644Z,8.17
2019-05-23T15:23:01.266Z,8.80
2019-05-23T15:25:30.878Z,8.47
2019-05-23T15:27:59.661Z,9.00
2019-05-23T15:30:28.964Z,8.17
2019-05-23T15:32:58.481Z,8.60
2019-05-23T15:35:28.287Z,9.17
2019-05-23T15:37:57.412Z,11.07
2019-05-23T15:40:27.210Z,11.30
2019-05-23T15:42:57.104Z,9.30
2019-05-23T15:45:26.456Z,10.13
2019-05-23T15:47:55.730Z,10.40
2019-05-23T15:50:28.173Z,10.93
2019-05-23T15:53:07.520Z,8.57
2019-05-23T15:55:55.559Z,9.43
2019-05-23T15:58:36.785Z,8.90
2019-05-23T16:01:09.380Z,8.80
2019-05-23T16:03:44.225Z,9.37
2019-05-23T16:06:15.569Z,9.93
2019-05-23T16:08:44.911Z,9.07
2019-05-23T16:11:17.320Z,8.47
2019-05-23T16:13:44.786Z,9.47
2019-05-23T16:16:14.445Z,8.20
2019-05-23T16:18:43.827Z,7.60
2019-05-23T16:21:14.668Z,9.67
2019-05-23T16:23:44.084Z,9.13
2019-05-23T16:26:13.700Z,8.27
2019-05-23T16:28:43.540Z,8.27
2019-05-23T16:31:12.932Z,12.53
2019-05-23T16:33:42.380Z,8.30
2019-05-23T16:36:11.380Z,9.33
2019-05-23T16:38:40.660Z,8.90
2019-05-23T16:41:11.566Z,10.03
2019-05-23T16:43:41.548Z,8.90
2019-05-23T16:46:10.755Z,8.60
2019-05-23T16:48:40.568Z,8.37
2019-05-23T16:51:09.514Z,8.03
2019-05-23T16:53:39.359Z,8.33
2019-05-23T16:56:16.157Z,8.37
2019-05-23T16:58:56.309Z,7.90
2019-05-23T17:01:54.877Z,7.40
2019-05-23T17:04:16.748Z,7.83
2019-05-23T17:07:35.576Z,8.40
2019-05-23T17:10:18.871Z,9.13
2019-05-23T17:13:02.433Z,8.57
2019-05-23T17:15:41.364Z,8.00
2019-05-23T17:18:23.296Z,7.70
2019-05-23T17:21:01.812Z,8.93
2019-05-23T17:23:50.966Z,7.97
2019-05-23T17:26:42.376Z,7.40
2019-05-23T17:29:20.873Z,7.43
2019-05-23T17:31:50.381Z,8.23
2019-05-23T17:34:19.606Z,8.20
2019-05-23T17:36:48.886Z,9.13
2019-05-23T17:39:18.431Z,9.00
2019-05-23T17:41:48.284Z,9.00
2019-05-23T17:44:17.493Z,8.80
2019-05-23T17:46:47.027Z,8.73
2019-05-23T17:49:16.797Z,9.53
2019-05-23T17:51:46.311Z,8.60
2019-05-23T17:54:16.640Z,10.43
2019-05-23T17:56:45.944Z,8.80
2019-05-23T17:59:14.920Z,9.67
2019-05-23T18:01:44.913Z,8.43
2019-05-23T18:04:14.381Z,9.07
2019-05-23T18:06:43.673Z,10.50
2019-05-23T18:09:13.535Z,9.10
2019-05-23T18:11:43.407Z,8.60
2019-05-23T18:14:13.493Z,9.70
2019-05-23T18:16:43.006Z,8.97
2019-05-23T18:19:12.308Z,8.00
2019-05-23T18:21:41.696Z,9.33
2019-05-23T18:24:11.678Z,12.50
2019-05-23T18:26:40.744Z,9.10
2019-05-23T18:29:10.284Z,10.33
2019-05-23T18:31:41.090Z,9.47
2019-05-23T18:34:11.312Z,9.97
2019-05-23T18:36:40.286Z,10.90
2019-05-23T18:39:12.336Z,8.73
2019-05-23T18:41:41.617Z,11.23
2019-05-23T18:44:11.152Z,9.20
2019-05-23T18:46:44.130Z,9.87
2019-05-23T18:49:13.420Z,9.40
2019-05-23T18:51:42.772Z,8.20
2019-05-23T18:54:12.332Z,9.07
2019-05-23T18:56:41.610Z,9.43
2019-05-23T18:59:12.089Z,8.63
2019-05-23T19:01:41.164Z,9.37
2019-05-23T19:04:10.431Z,8.57
2019-05-23T19:06:39.661Z,9.30
2019-05-23T19:09:11.794Z,8.80
2019-05-23T19:11:41.599Z,8.53
2019-05-23T19:14:10.834Z,8.50
2019-05-23T19:16:40.844Z,8.67
2019-05-23T19:19:10.240Z,8.67
2019-05-23T19:21:40.298Z,9.30
2019-05-23T19:24:10.985Z,11.13
2019-05-23T19:26:40.459Z,9.40
2019-05-23T19:29:10.027Z,9.40
2019-05-23T19:31:38.848Z,14.13
2019-05-23T19:34:08.139Z,9.37
2019-05-23T19:36:37.602Z,9.97
2019-05-23T19:39:07.319Z,9.57
2019-05-23T19:41:38.163Z,13.23
2019-05-23T19:44:07.870Z,10.33
2019-05-23T19:46:37.960Z,9.63
2019-05-23T19:49:08.574Z,9.57
2019-05-23T19:51:37.813Z,11.40
2019-05-23T19:54:08.253Z,10.70
2019-05-23T19:56:37.295Z,17.00
2019-05-23T19:59:06.363Z,14.40
2019-05-23T20:01:57.496Z,16.50
2019-05-23T20:04:31.286Z,14.90
2019-05-23T20:07:00.296Z,11.27
2019-05-23T20:09:30.361Z,12.70
2019-05-23T20:11:59.468Z,9.90
2019-05-23T20:14:29.629Z,11.67
2019-05-23T20:16:58.595Z,10.30
2019-05-23T20:19:28.173Z,10.60
2019-05-23T20:21:57.352Z,11.43
2019-05-23T20:24:26.576Z,12.70
2019-05-23T20:26:55.920Z,12.80
2019-05-23T20:29:25.530Z,12.60
2019-05-23T20:31:54.436Z,10.20
2019-05-23T20:34:25.195Z,10.87
2019-05-23T20:36:54.499Z,11.30
2019-05-23T20:39:24.187Z,11.10
2019-05-23T20:41:53.180Z,12.43
2019-05-23T20:44:22.845Z,12.57
2019-05-23T20:46:52.764Z,12.10
2019-05-23T20:49:22.273Z,14.10
2019-05-23T20:51:52.344Z,10.90
2019-05-23T20:54:21.856Z,10.67
2019-05-23T20:56:51.393Z,11.70
2019-05-23T20:59:20.591Z,12.80
2019-05-23T21:01:49.745Z,12.47
2019-05-23T21:04:18.875Z,12.03
2019-05-23T21:06:48.123Z,11.87
2019-05-23T21:09:17.509Z,12.63
2019-05-23T21:11:46.683Z,13.37
2019-05-23T21:14:15.949Z,12.13
2019-05-23T21:16:44.748Z,12.87
2019-05-23T21:19:13.664Z,12.80
2019-05-23T21:21:43.136Z,13.17
2019-05-23T21:24:12.217Z,14.80
2019-05-23T21:26:41.736Z,15.70
2019-05-23T21:29:10.647Z,13.50
2019-05-23T21:31:39.754Z,13.20
